createdAt,value
2019-02-14T00:04:27.802Z,100.00
2019-02-14T00:09:31.224Z,100.00
2019-02-14T00:14:34.644Z,100.00
2019-02-14T00:19:38.221Z,100.00
2019-02-14T00:24:41.653Z,100.00
2019-02-14T00:29:45.077Z,100.00
2019-02-14T00:34:48.495Z,100.00
2019-02-14T00:39:51.927Z,100.00
2019-02-14T00:44:55.358Z,100.00
2019-02-14T00:49:58.774Z,100.00
2019-02-14T00:55:02.195Z,100.00
2019-02-14T01:00:08.126Z,100.00
2019-02-14T01:05:11.560Z,100.00
2019-02-14T01:10:15.097Z,100.00
2019-02-14T01:20:29.452Z,100.00
2019-02-14T01:25:32.857Z,100.00
2019-02-14T01:30:36.421Z,100.00
2019-02-14T01:35:42.025Z,100.00
2019-02-14T01:40:45.055Z,100.00
2019-02-14T01:45:48.494Z,100.00
2019-02-14T01:50:51.925Z,100.00
2019-02-14T01:55:55.370Z,100.00
2019-02-14T02:00:59.345Z,100.00
2019-02-14T02:06:02.774Z,100.00
2019-02-14T02:11:06.461Z,100.00
2019-02-14T02:16:09.936Z,100.00
2019-02-14T02:21:13.432Z,100.00
2019-02-14T02:26:16.895Z,100.00
2019-02-14T02:31:20.360Z,100.00
2019-02-14T02:36:23.766Z,100.00
2019-02-14T02:41:27.210Z,100.00
2019-02-14T02:46:30.727Z,100.00
2019-02-14T02:51:34.181Z,100.00
2019-02-14T02:56:37.610Z,100.00
2019-02-14T03:01:41.107Z,100.00
2019-02-14T03:06:44.554Z,100.00
2019-02-14T03:11:47.973Z,100.00
2019-02-14T03:16:51.406Z,100.00
2019-02-14T03:21:54.858Z,100.00
2019-02-14T03:26:58.373Z,100.00
2019-02-14T03:32:01.941Z,100.00
2019-02-14T03:37:05.369Z,100.00
2019-02-14T03:42:08.791Z,100.00
2019-02-14T03:47:12.223Z,100.00
2019-02-14T03:52:15.728Z,100.00
2019-02-14T03:57:19.159Z,100.00
2019-02-14T04:02:22.581Z,100.00
2019-02-14T04:07:26.054Z,100.00
2019-02-14T04:12:29.629Z,100.00
2019-02-14T04:17:33.068Z,100.00
2019-02-14T04:22:36.488Z,100.00
2019-02-14T04:27:39.916Z,100.00
2019-02-14T04:32:43.354Z,100.00
2019-02-14T04:37:46.845Z,100.00
2019-02-14T04:42:50.278Z,100.00
2019-02-14T04:47:53.787Z,100.00
2019-02-14T04:52:57.209Z,100.00
2019-02-14T04:58:00.650Z,100.00
2019-02-14T05:03:04.076Z,100.00
2019-02-14T05:08:07.575Z,100.00
2019-02-14T05:13:10.995Z,100.00
2019-02-14T05:18:15.454Z,100.00
2019-02-14T05:23:18.956Z,100.00
2019-02-14T05:28:22.491Z,100.00
2019-02-14T05:33:25.937Z,100.00
2019-02-14T05:38:29.372Z,100.00
2019-02-14T05:43:33.001Z,100.00
2019-02-14T05:48:36.462Z,100.00
2019-02-14T05:53:39.934Z,100.00
2019-02-14T05:58:43.399Z,100.00
2019-02-14T06:03:46.837Z,100.00
2019-02-14T06:08:50.333Z,100.00
2019-02-14T06:13:53.734Z,100.00
2019-02-14T06:18:57.355Z,100.00
2019-02-14T06:24:00.796Z,100.00
2019-02-14T06:29:04.215Z,100.00
2019-02-14T06:34:07.661Z,100.00
2019-02-14T06:39:11.097Z,100.00
2019-02-14T06:44:14.553Z,100.00
2019-02-14T06:49:18.004Z,100.00
2019-02-14T06:54:21.462Z,100.00
2019-02-14T06:59:25.054Z,100.00
2019-02-14T07:04:28.627Z,100.00
2019-02-14T07:09:32.087Z,100.00
2019-02-14T07:14:35.536Z,100.00
2019-02-14T07:19:38.911Z,100.00
2019-02-14T07:24:42.357Z,100.00
2019-02-14T07:29:45.813Z,100.00
2019-02-14T07:34:49.282Z,100.00
2019-02-14T07:39:52.723Z,100.00
2019-02-14T07:44:56.139Z,100.00
2019-02-14T07:49:59.569Z,100.00
2019-02-14T07:55:03.041Z,100.00
2019-02-14T08:00:10.088Z,100.00
2019-02-14T08:05:13.649Z,100.00
2019-02-14T08:10:18.901Z,100.00
2019-02-14T08:15:22.453Z,100.00
2019-02-14T08:20:25.962Z,100.00
2019-02-14T08:25:29.400Z,100.00
2019-02-14T08:30:32.844Z,100.00
2019-02-14T08:35:36.264Z,100.00
2019-02-14T08:40:39.746Z,100.00
2019-02-14T08:45:43.423Z,100.00
2019-02-14T08:50:46.852Z,100.00
2019-02-14T08:55:51.165Z,100.00
2019-02-14T09:00:54.582Z,100.00
2019-02-14T09:05:58.088Z,100.00
2019-02-14T09:11:01.526Z,100.00
2019-02-14T09:16:04.970Z,100.00
2019-02-14T09:21:08.760Z,100.00
2019-02-14T09:26:12.353Z,100.00
2019-02-14T09:31:15.783Z,100.00
2019-02-14T09:36:19.230Z,99.86
2019-02-14T09:41:22.667Z,99.02
2019-02-14T09:46:26.140Z,96.20
2019-02-14T09:51:30.473Z,94.52
2019-02-14T09:56:33.908Z,92.74
2019-02-14T10:01:37.363Z,89.09
2019-02-14T10:06:40.775Z,86.76
2019-02-14T10:11:44.288Z,81.82
2019-02-14T10:16:47.697Z,81.62
2019-02-14T10:21:51.405Z,79.34
2019-02-14T10:26:54.915Z,79.31
2019-02-14T10:31:58.372Z,75.03
2019-02-14T10:37:01.783Z,70.08
2019-02-14T10:42:05.212Z,67.18
2019-02-14T10:47:08.702Z,66.01
2019-02-14T10:52:12.140Z,66.40
2019-02-14T10:57:15.566Z,65.27
2019-02-14T11:02:19.420Z,65.53
2019-02-14T11:07:22.851Z,56.48
2019-02-14T11:12:26.334Z,51.84
2019-02-14T11:17:29.719Z,50.92
2019-02-14T11:22:33.130Z,51.18
2019-02-14T11:27:36.569Z,52.89
2019-02-14T11:32:39.991Z,53.20
2019-02-14T11:37:43.435Z,52.10
2019-02-14T11:42:47.018Z,50.24
2019-02-14T11:47:50.480Z,47.28
2019-02-14T11:52:53.903Z,46.36
2019-02-14T11:57:57.319Z,45.33
2019-02-14T12:03:00.924Z,51.92
2019-02-14T12:08:04.337Z,45.88
2019-02-14T12:13:07.922Z,43.44
2019-02-14T12:18:11.368Z,45.47
2019-02-14T12:23:14.791Z,44.12
2019-02-14T12:28:18.231Z,43.67
2019-02-14T12:33:22.099Z,41.50
2019-02-14T12:38:25.538Z,40.37
2019-02-14T12:43:29.055Z,41.68
2019-02-14T12:48:32.674Z,37.77
2019-02-14T12:53:36.091Z,37.74
2019-02-14T12:58:39.515Z,36.54
2019-02-14T13:03:42.943Z,38.77
2019-02-14T13:08:46.386Z,36.20
2019-02-14T13:13:50.698Z,37.49
2019-02-14T13:18:54.406Z,38.88
2019-02-14T13:23:57.840Z,37.60
2019-02-14T13:29:01.267Z,37.43
2019-02-14T13:34:04.699Z,38.51
2019-02-14T13:39:08.179Z,38.81
2019-02-14T13:44:11.592Z,36.63
2019-02-14T13:49:15.023Z,36.47
2019-02-14T13:54:18.474Z,38.68
2019-02-14T13:59:21.898Z,37.32
2019-02-14T14:04:25.339Z,37.78
2019-02-14T14:09:28.792Z,37.29
2019-02-14T14:14:32.257Z,38.29
2019-02-14T14:19:35.706Z,37.89
2019-02-14T14:24:39.144Z,38.04
2019-02-14T14:29:42.675Z,39.60
2019-02-14T14:34:46.097Z,41.17
2019-02-14T14:39:49.527Z,39.75
2019-02-14T14:44:53.589Z,40.24
2019-02-14T14:49:57.155Z,38.93
2019-02-14T14:55:00.761Z,39.37
2019-02-14T15:00:06.147Z,42.34
2019-02-14T15:05:09.658Z,42.31
2019-02-14T15:10:13.133Z,43.31
2019-02-14T15:15:16.543Z,42.31
2019-02-14T15:20:20.011Z,42.43
2019-02-14T15:25:23.611Z,42.60
2019-02-14T15:30:27.197Z,45.59
2019-02-14T15:35:30.646Z,46.13
2019-02-14T15:40:34.555Z,49.10
2019-02-14T15:45:39.269Z,49.05
2019-02-14T15:50:42.733Z,48.95
2019-02-14T15:55:46.362Z,50.53
2019-02-14T16:00:51.682Z,51.49
2019-02-14T16:05:55.302Z,51.47
2019-02-14T16:10:58.913Z,52.01
2019-02-14T16:16:02.352Z,53.33
2019-02-14T16:21:07.793Z,54.86
2019-02-14T16:26:12.949Z,55.51
2019-02-14T16:31:16.551Z,56.60
2019-02-14T16:36:20.718Z,57.79
2019-02-14T16:41:25.367Z,58.84
2019-02-14T16:46:28.780Z,60.07
2019-02-14T16:51:32.193Z,60.66
2019-02-14T16:56:35.659Z,60.82
2019-02-14T17:01:39.091Z,61.50
2019-02-14T17:06:42.511Z,61.87
2019-02-14T17:11:45.934Z,64.28
2019-02-14T17:16:49.437Z,63.85
2019-02-14T17:21:52.876Z,63.40
2019-02-14T17:26:56.297Z,63.98
2019-02-14T17:31:59.756Z,64.91
2019-02-14T17:37:03.250Z,65.59
2019-02-14T17:42:06.917Z,66.40
2019-02-14T17:47:10.322Z,67.50
2019-02-14T17:52:13.794Z,67.84
2019-02-14T17:57:17.222Z,67.52
2019-02-14T18:02:20.645Z,68.10
2019-02-14T18:07:24.055Z,68.79
2019-02-14T18:12:27.544Z,69.67
2019-02-14T18:17:31.038Z,71.00
2019-02-14T18:22:34.789Z,71.47
2019-02-14T18:27:38.337Z,72.48
2019-02-14T18:32:41.767Z,73.71
2019-02-14T18:37:45.184Z,72.82
2019-02-14T18:42:49.139Z,73.26
2019-02-14T18:47:52.826Z,74.72
2019-02-14T18:52:56.252Z,76.46
2019-02-14T18:57:59.671Z,77.23
2019-02-14T19:03:03.110Z,77.33
2019-02-14T19:08:06.519Z,77.43
2019-02-14T19:13:09.933Z,78.62
2019-02-14T19:18:13.537Z,79.64
2019-02-14T19:23:24.141Z,80.22
2019-02-14T19:28:22.135Z,80.80
2019-02-14T19:33:25.614Z,81.85
2019-02-14T19:38:29.040Z,81.48
2019-02-14T19:43:32.461Z,81.82
2019-02-14T19:48:35.992Z,83.33
2019-02-14T19:53:39.412Z,83.08
2019-02-14T19:58:42.924Z,84.40
2019-02-14T20:03:46.421Z,84.70
2019-02-14T20:08:49.880Z,85.12
2019-02-14T20:13:53.528Z,86.09
2019-02-14T20:18:56.971Z,86.04
2019-02-14T20:24:00.419Z,86.21
2019-02-14T20:29:03.866Z,86.74
2019-02-14T20:34:07.331Z,87.70
2019-02-14T20:39:10.909Z,88.00
2019-02-14T20:44:14.357Z,88.87
2019-02-14T20:49:17.757Z,88.70
2019-02-14T20:54:21.197Z,89.60
2019-02-14T20:59:24.618Z,89.03
2019-02-14T21:04:28.073Z,89.41
2019-02-14T21:09:31.497Z,87.17
2019-02-14T21:14:34.960Z,89.59
2019-02-14T21:19:38.490Z,89.92
2019-02-14T21:24:41.933Z,90.33
2019-02-14T21:29:45.931Z,89.50
2019-02-14T21:34:49.461Z,89.48
2019-02-14T21:39:53.447Z,90.41
2019-02-14T21:44:56.892Z,91.28
2019-02-14T21:50:00.810Z,90.94
2019-02-14T21:55:06.409Z,89.51
2019-02-14T22:00:14.525Z,90.81
2019-02-14T22:05:24.686Z,89.73
2019-02-14T22:10:24.791Z,90.31
2019-02-14T22:15:29.366Z,90.82
2019-02-14T22:20:32.797Z,90.79
2019-02-14T22:25:36.235Z,90.43
2019-02-14T22:30:39.742Z,90.51
2019-02-14T22:35:43.264Z,89.57
2019-02-14T22:40:46.794Z,87.90
2019-02-14T22:45:50.477Z,90.35
2019-02-14T22:50:54.105Z,91.03
2019-02-14T22:55:57.593Z,91.40
2019-02-14T23:01:01.469Z,90.34
2019-02-14T23:06:05.009Z,90.20
2019-02-14T23:11:08.419Z,90.65
2019-02-14T23:16:11.903Z,89.79
2019-02-14T23:21:15.311Z,91.75
2019-02-14T23:26:18.775Z,91.26
2019-02-14T23:31:22.184Z,91.59
2019-02-14T23:36:25.847Z,90.42
2019-02-14T23:41:29.438Z,90.97
2019-02-14T23:46:32.938Z,91.78
2019-02-14T23:51:36.368Z,92.10
2019-02-14T23:56:39.798Z,91.82
